EmailTwitter


Observations de surface / Québec / LFRZ

Régions: Québec | Canada | États-Unis | Europe | France | UK | Elsewhere
Station
Affichage
Infos & localisation pour LFRZ | Aide pour décoder les METARs

Observations prises le 2017-02-24 à 10H00 UTC à ST. NAZAIRE/MONT, FR (LFRZ)

Température: 9.0 Celsius

Point de rosée: 4.0 Celsius

Humidité relative: 71%

Vents: Nord-ouest à 9 km/h ou 5 noeuds.

Pression au niveau moyen de la mer: 102.10 kilopascals.

Observation METAR:

LFRZ 241000Z AUTO 31005KT 260V350 CAVOK 09/04 Q1021 NOSIG=